메인 페이지
METAR-TAF:

METAR-TAF

공항 :

Vero Beach Municipal Airport

Vero Beach, 플로리다, 미국

위도: 27-39-20N, 경도: 080-25-05W, 고도: 7m

현재 날씨관측

예보는 1 시간 2분 전, 23:53시(UTC)에 발표되었습니다.
남서10kt
온도 28°C
습도 74%
기압 1012 hPa
시정: 16.1km
맑음

METAR: KVRB 122353Z 23010KT 10SM CLR 28/23 A2989 RMK AO2 SLP121 T02780228 10317 20278 56003

시각: 20:55 (00:55 UTC)

예보

예보는 1 시간 20분 전, 23:35시(UTC)에 발표되었습니다.
예보 대상 시간: 13일 00시부터 13일 24시까지 (UTC)
남서7kt
시정: 10km
고도 25000ft 상공 구름 많음
13일 1400시부터 (UTC)
서남서9kt
시정: 10km
고도 2500ft 상공 구름 보통
고도 25000ft 상공 구름 보통
13일 2000시부터 (UTC)
10kt
시정: 10km
고도 4000ft 상공 구름 보통, 적란운.
고도 25000ft 상공 구름 많음
시계 내 뇌우

TAF: KVRB 122335Z 1300/1324 22007KT P6SM BKN250 FM131400 24009KT P6SM SCT025 SCT250 FM132000 18010KT P6SM VCTS SCT040CB BKN250

4,000개 이상의 공항 관측 자료 및 예보 (METAR 및 TAF 보고).

지도상에서 검색 가능한 기상관측소가 노란 점과 빨간 점으로 표시되어 있습니다.

기상관측소 명을 보려면 표시 위로 마우스를 이동하세요.

날씨 관측과 예보를 보려면 클릭하세요.

지도 변경 : 확대하려면 엑스 표시가 있는 녹색 버튼, 축소하려면 빼기 표시가 있는 녹색 버튼, 다음 페이지의 지도를 보려면 녹색 화살표를 클릭하세요.


METAR-TAF: